sensor_id;sensor_type;location;lat;lon;timestamp;P1;durP1;ratioP1;P2;durP2;ratioP2
11653;SDS011;5883;48.818;9.114;2023-09-30T00:00:08;4.40;;;2.58;;
11653;SDS011;5883;48.818;9.114;2023-09-30T00:02:53;4.38;;;2.60;;
11653;SDS011;5883;48.818;9.114;2023-09-30T00:05:40;2.92;;;2.20;;
11653;SDS011;5883;48.818;9.114;2023-09-30T00:08:25;5.00;;;2.55;;
11653;SDS011;5883;48.818;9.114;2023-09-30T00:11:11;6.07;;;2.55;;
11653;SDS011;5883;48.818;9.114;2023-09-30T00:13:56;6.15;;;3.00;;
11653;SDS011;5883;48.818;9.114;2023-09-30T00:16:41;4.25;;;2.33;;
11653;SDS011;5883;48.818;9.114;2023-09-30T00:19:26;4.00;;;2.22;;
11653;SDS011;5883;48.818;9.114;2023-09-30T00:22:12;5.32;;;2.30;;
11653;SDS011;5883;48.818;9.114;2023-09-30T00:24:57;5.43;;;1.92;;
11653;SDS011;5883;48.818;9.114;2023-09-30T00:27:42;4.32;;;2.25;;
11653;SDS011;5883;48.818;9.114;2023-09-30T00:30:27;2.92;;;2.03;;
11653;SDS011;5883;48.818;9.114;2023-09-30T00:33:12;5.05;;;2.20;;
11653;SDS011;5883;48.818;9.114;2023-09-30T00:35:57;4.22;;;1.75;;
11653;SDS011;5883;48.818;9.114;2023-09-30T00:38:43;3.95;;;1.83;;
11653;SDS011;5883;48.818;9.114;2023-09-30T00:41:28;4.25;;;2.17;;
11653;SDS011;5883;48.818;9.114;2023-09-30T00:44:13;3.75;;;1.88;;
11653;SDS011;5883;48.818;9.114;2023-09-30T00:46:58;4.15;;;2.05;;
11653;SDS011;5883;48.818;9.114;2023-09-30T00:49:44;1.67;;;1.40;;
11653;SDS011;5883;48.818;9.114;2023-09-30T00:52:29;3.30;;;1.95;;
11653;SDS011;5883;48.818;9.114;2023-09-30T00:55:15;2.95;;;1.67;;
11653;SDS011;5883;48.818;9.114;2023-09-30T00:58:01;5.43;;;2.10;;
11653;SDS011;5883;48.818;9.114;2023-09-30T01:00:46;2.17;;;1.40;;
11653;SDS011;5883;48.818;9.114;2023-09-30T01:03:32;2.92;;;1.90;;
11653;SDS011;5883;48.818;9.114;2023-09-30T01:06:18;2.83;;;2.10;;
11653;SDS011;5883;48.818;9.114;2023-09-30T01:09:03;3.45;;;2.00;;
11653;SDS011;5883;48.818;9.114;2023-09-30T01:11:49;3.63;;;2.08;;
11653;SDS011;5883;48.818;9.114;2023-09-30T01:14:35;4.18;;;1.80;;
11653;SDS011;5883;48.818;9.114;2023-09-30T01:17:22;4.53;;;2.03;;
11653;SDS011;5883;48.818;9.114;2023-09-30T01:20:08;2.65;;;1.77;;
11653;SDS011;5883;48.818;9.114;2023-09-30T01:23:01;3.50;;;2.00;;
11653;SDS011;5883;48.818;9.114;2023-09-30T01:25:47;6.28;;;1.63;;
11653;SDS011;5883;48.818;9.114;2023-09-30T01:28:33;3.90;;;2.05;;
11653;SDS011;5883;48.818;9.114;2023-09-30T01:31:18;2.97;;;2.03;;
11653;SDS011;5883;48.818;9.114;2023-09-30T01:34:03;2.55;;;1.75;;
11653;SDS011;5883;48.818;9.114;2023-09-30T01:36:49;2.78;;;1.83;;
11653;SDS011;5883;48.818;9.114;2023-09-30T01:39:35;3.28;;;1.92;;
11653;SDS011;5883;48.818;9.114;2023-09-30T01:42:20;2.95;;;1.95;;
11653;SDS011;5883;48.818;9.114;2023-09-30T01:45:06;2.95;;;1.90;;
11653;SDS011;5883;48.818;9.114;2023-09-30T01:47:51;4.97;;;2.20;;
11653;SDS011;5883;48.818;9.114;2023-09-30T01:50:36;3.10;;;1.88;;
11653;SDS011;5883;48.818;9.114;2023-09-30T01:53:21;2.47;;;1.88;;
11653;SDS011;5883;48.818;9.114;2023-09-30T01:56:07;2.95;;;1.90;;
11653;SDS011;5883;48.818;9.114;2023-09-30T01:58:52;2.25;;;1.83;;
11653;SDS011;5883;48.818;9.114;2023-09-30T02:01:37;2.97;;;2.10;;
11653;SDS011;5883;48.818;9.114;2023-09-30T02:04:22;3.65;;;2.38;;
11653;SDS011;5883;48.818;9.114;2023-09-30T02:07:07;5.60;;;2.47;;
11653;SDS011;5883;48.818;9.114;2023-09-30T02:09:52;3.90;;;2.47;;
11653;SDS011;5883;48.818;9.114;2023-09-30T02:12:38;4.68;;;2.38;;
11653;SDS011;5883;48.818;9.114;2023-09-30T02:15:24;4.70;;;3.00;;
11653;SDS011;5883;48.818;9.114;2023-09-30T02:18:09;5.03;;;2.80;;
11653;SDS011;5883;48.818;9.114;2023-09-30T02:20:54;4.50;;;2.80;;
11653;SDS011;5883;48.818;9.114;2023-09-30T02:23:39;4.35;;;2.90;;
11653;SDS011;5883;48.818;9.114;2023-09-30T02:26:24;5.55;;;2.67;;
11653;SDS011;5883;48.818;9.114;2023-09-30T02:29:12;5.88;;;2.70;;
11653;SDS011;5883;48.818;9.114;2023-09-30T02:31:57;5.00;;;2.85;;
11653;SDS011;5883;48.818;9.114;2023-09-30T02:34:42;4.53;;;2.45;;
11653;SDS011;5883;48.818;9.114;2023-09-30T02:37:28;3.95;;;2.60;;
11653;SDS011;5883;48.818;9.114;2023-09-30T02:40:13;7.45;;;2.97;;
11653;SDS011;5883;48.818;9.114;2023-09-30T02:42:58;4.97;;;3.05;;
11653;SDS011;5883;48.818;9.114;2023-09-30T02:45:44;6.00;;;3.13;;
11653;SDS011;5883;48.818;9.114;2023-09-30T02:48:29;6.30;;;3.20;;
11653;SDS011;5883;48.818;9.114;2023-09-30T02:51:15;5.20;;;3.13;;
11653;SDS011;5883;48.818;9.114;2023-09-30T02:54:02;7.00;;;3.30;;
11653;SDS011;5883;48.818;9.114;2023-09-30T02:56:48;8.18;;;3.30;;
11653;SDS011;5883;48.818;9.114;2023-09-30T02:59:33;5.10;;;2.70;;
11653;SDS011;5883;48.818;9.114;2023-09-30T03:02:21;4.97;;;2.90;;
11653;SDS011;5883;48.818;9.114;2023-09-30T03:05:06;5.07;;;3.30;;
11653;SDS011;5883;48.818;9.114;2023-09-30T03:07:52;3.65;;;2.50;;
11653;SDS011;5883;48.818;9.114;2023-09-30T03:10:37;5.40;;;2.78;;
11653;SDS011;5883;48.818;9.114;2023-09-30T03:13:24;4.88;;;3.10;;
11653;SDS011;5883;48.818;9.114;2023-09-30T03:16:10;6.40;;;2.80;;
11653;SDS011;5883;48.818;9.114;2023-09-30T03:18:56;5.32;;;2.90;;
11653;SDS011;5883;48.818;9.114;2023-09-30T03:21:41;4.53;;;3.42;;
11653;SDS011;5883;48.818;9.114;2023-09-30T03:24:27;5.03;;;2.90;;
11653;SDS011;5883;48.818;9.114;2023-09-30T03:27:12;4.80;;;3.08;;
11653;SDS011;5883;48.818;9.114;2023-09-30T03:29:58;7.75;;;3.00;;
11653;SDS011;5883;48.818;9.114;2023-09-30T03:32:44;3.28;;;2.72;;
11653;SDS011;5883;48.818;9.114;2023-09-30T03:35:31;7.45;;;2.53;;
11653;SDS011;5883;48.818;9.114;2023-09-30T03:38:16;4.40;;;2.70;;
11653;SDS011;5883;48.818;9.114;2023-09-30T03:41:03;6.47;;;3.35;;
11653;SDS011;5883;48.818;9.114;2023-09-30T03:43:51;4.85;;;2.80;;
11653;SDS011;5883;48.818;9.114;2023-09-30T03:46:37;5.50;;;2.90;;
11653;SDS011;5883;48.818;9.114;2023-09-30T03:49:23;8.25;;;2.50;;
11653;SDS011;5883;48.818;9.114;2023-09-30T03:52:09;6.45;;;2.70;;
11653;SDS011;5883;48.818;9.114;2023-09-30T03:54:55;4.90;;;2.55;;
11653;SDS011;5883;48.818;9.114;2023-09-30T03:57:42;5.40;;;3.03;;
11653;SDS011;5883;48.818;9.114;2023-09-30T04:00:29;4.35;;;2.70;;
11653;SDS011;5883;48.818;9.114;2023-09-30T04:03:14;3.90;;;2.67;;
11653;SDS011;5883;48.818;9.114;2023-09-30T04:05:59;3.60;;;2.60;;
11653;SDS011;5883;48.818;9.114;2023-09-30T04:08:46;4.45;;;2.42;;
11653;SDS011;5883;48.818;9.114;2023-09-30T04:11:31;3.80;;;2.47;;
11653;SDS011;5883;48.818;9.114;2023-09-30T04:14:16;5.88;;;3.30;;
11653;SDS011;5883;48.818;9.114;2023-09-30T04:17:01;4.57;;;2.70;;
11653;SDS011;5883;48.818;9.114;2023-09-30T04:19:47;3.85;;;2.45;;
11653;SDS011;5883;48.818;9.114;2023-09-30T04:22:35;3.65;;;2.75;;
11653;SDS011;5883;48.818;9.114;2023-09-30T04:25:21;4.65;;;2.75;;
11653;SDS011;5883;48.818;9.114;2023-09-30T04:28:08;3.53;;;2.72;;
11653;SDS011;5883;48.818;9.114;2023-09-30T04:30:53;5.57;;;3.13;;
11653;SDS011;5883;48.818;9.114;2023-09-30T04:33:38;5.38;;;2.92;;
11653;SDS011;5883;48.818;9.114;2023-09-30T04:36:23;3.28;;;2.83;;
11653;SDS011;5883;48.818;9.114;2023-09-30T04:39:08;5.65;;;3.13;;
11653;SDS011;5883;48.818;9.114;2023-09-30T04:41:56;5.85;;;2.97;;
11653;SDS011;5883;48.818;9.114;2023-09-30T04:44:41;7.63;;;3.05;;
11653;SDS011;5883;48.818;9.114;2023-09-30T04:47:27;6.50;;;3.30;;
11653;SDS011;5883;48.818;9.114;2023-09-30T04:50:12;6.05;;;2.80;;
11653;SDS011;5883;48.818;9.114;2023-09-30T04:52:59;6.07;;;2.70;;
11653;SDS011;5883;48.818;9.114;2023-09-30T04:55:45;6.38;;;2.97;;
11653;SDS011;5883;48.818;9.114;2023-09-30T04:58:33;7.57;;;2.70;;
11653;SDS011;5883;48.818;9.114;2023-09-30T05:01:18;3.75;;;2.42;;
11653;SDS011;5883;48.818;9.114;2023-09-30T05:04:03;7.60;;;2.90;;
11653;SDS011;5883;48.818;9.114;2023-09-30T05:06:49;5.43;;;3.15;;
11653;SDS011;5883;48.818;9.114;2023-09-30T05:09:33;4.80;;;2.55;;
11653;SDS011;5883;48.818;9.114;2023-09-30T05:12:20;4.60;;;2.65;;
11653;SDS011;5883;48.818;9.114;2023-09-30T05:15:07;7.18;;;2.45;;
11653;SDS011;5883;48.818;9.114;2023-09-30T05:17:52;5.72;;;2.75;;
11653;SDS011;5883;48.818;9.114;2023-09-30T05:20:37;6.45;;;2.90;;
11653;SDS011;5883;48.818;9.114;2023-09-30T05:23:22;4.00;;;2.88;;
11653;SDS011;5883;48.818;9.114;2023-09-30T05:26:08;9.00;;;3.05;;
11653;SDS011;5883;48.818;9.114;2023-09-30T05:28:53;5.80;;;2.50;;
11653;SDS011;5883;48.818;9.114;2023-09-30T05:31:39;6.45;;;2.72;;
11653;SDS011;5883;48.818;9.114;2023-09-30T05:34:24;7.18;;;2.97;;
11653;SDS011;5883;48.818;9.114;2023-09-30T05:37:09;5.32;;;2.85;;
11653;SDS011;5883;48.818;9.114;2023-09-30T05:39:56;4.15;;;2.92;;
11653;SDS011;5883;48.818;9.114;2023-09-30T05:42:41;6.03;;;2.75;;
11653;SDS011;5883;48.818;9.114;2023-09-30T05:45:27;9.00;;;3.33;;
11653;SDS011;5883;48.818;9.114;2023-09-30T05:48:14;6.47;;;3.08;;
11653;SDS011;5883;48.818;9.114;2023-09-30T05:50:59;7.10;;;3.10;;
11653;SDS011;5883;48.818;9.114;2023-09-30T05:53:45;4.35;;;2.83;;
11653;SDS011;5883;48.818;9.114;2023-09-30T05:56:31;5.78;;;2.95;;
11653;SDS011;5883;48.818;9.114;2023-09-30T05:59:16;5.15;;;3.10;;
11653;SDS011;5883;48.818;9.114;2023-09-30T06:02:01;5.93;;;2.90;;
11653;SDS011;5883;48.818;9.114;2023-09-30T06:04:48;5.78;;;2.70;;
11653;SDS011;5883;48.818;9.114;2023-09-30T06:07:34;6.00;;;3.45;;
11653;SDS011;5883;48.818;9.114;2023-09-30T06:10:19;7.68;;;3.40;;
11653;SDS011;5883;48.818;9.114;2023-09-30T06:13:04;6.10;;;2.75;;
11653;SDS011;5883;48.818;9.114;2023-09-30T06:15:52;9.52;;;3.00;;
11653;SDS011;5883;48.818;9.114;2023-09-30T06:18:38;8.55;;;3.38;;
11653;SDS011;5883;48.818;9.114;2023-09-30T06:21:24;9.00;;;3.80;;
11653;SDS011;5883;48.818;9.114;2023-09-30T06:24:12;6.32;;;3.17;;
11653;SDS011;5883;48.818;9.114;2023-09-30T06:26:57;4.70;;;2.90;;
11653;SDS011;5883;48.818;9.114;2023-09-30T06:29:42;6.82;;;3.65;;
11653;SDS011;5883;48.818;9.114;2023-09-30T06:32:27;6.80;;;3.22;;
11653;SDS011;5883;48.818;9.114;2023-09-30T06:35:12;6.18;;;3.33;;
11653;SDS011;5883;48.818;9.114;2023-09-30T06:37:59;5.20;;;3.20;;
11653;SDS011;5883;48.818;9.114;2023-09-30T06:40:45;6.88;;;3.50;;
11653;SDS011;5883;48.818;9.114;2023-09-30T06:43:31;9.65;;;3.55;;
11653;SDS011;5883;48.818;9.114;2023-09-30T06:46:17;5.55;;;3.20;;
11653;SDS011;5883;48.818;9.114;2023-09-30T06:49:02;4.75;;;3.00;;
11653;SDS011;5883;48.818;9.114;2023-09-30T06:51:47;6.15;;;3.33;;
11653;SDS011;5883;48.818;9.114;2023-09-30T06:54:34;6.80;;;3.28;;
11653;SDS011;5883;48.818;9.114;2023-09-30T06:57:19;4.53;;;2.92;;
11653;SDS011;5883;48.818;9.114;2023-09-30T07:00:05;4.47;;;2.70;;
11653;SDS011;5883;48.818;9.114;2023-09-30T07:02:52;7.10;;;3.47;;
11653;SDS011;5883;48.818;9.114;2023-09-30T07:05:37;7.57;;;3.20;;
11653;SDS011;5883;48.818;9.114;2023-09-30T07:08:24;8.20;;;3.40;;
11653;SDS011;5883;48.818;9.114;2023-09-30T07:11:11;5.50;;;3.10;;
11653;SDS011;5883;48.818;9.114;2023-09-30T07:13:56;8.55;;;2.90;;
11653;SDS011;5883;48.818;9.114;2023-09-30T07:16:41;7.47;;;3.92;;
11653;SDS011;5883;48.818;9.114;2023-09-30T07:19:26;4.15;;;3.05;;
11653;SDS011;5883;48.818;9.114;2023-09-30T07:22:11;9.52;;;4.00;;
11653;SDS011;5883;48.818;9.114;2023-09-30T07:24:57;7.82;;;4.05;;
11653;SDS011;5883;48.818;9.114;2023-09-30T07:27:44;6.47;;;3.95;;
11653;SDS011;5883;48.818;9.114;2023-09-30T07:30:29;8.88;;;3.45;;
11653;SDS011;5883;48.818;9.114;2023-09-30T07:33:15;7.30;;;3.70;;
11653;SDS011;5883;48.818;9.114;2023-09-30T07:35:59;5.45;;;3.08;;
11653;SDS011;5883;48.818;9.114;2023-09-30T07:38:44;5.10;;;3.00;;
11653;SDS011;5883;48.818;9.114;2023-09-30T07:41:34;7.00;;;2.95;;
11653;SDS011;5883;48.818;9.114;2023-09-30T07:44:20;5.25;;;2.90;;
11653;SDS011;5883;48.818;9.114;2023-09-30T07:47:05;5.22;;;3.30;;
11653;SDS011;5883;48.818;9.114;2023-09-30T07:49:50;8.52;;;3.47;;
11653;SDS011;5883;48.818;9.114;2023-09-30T07:52:36;5.53;;;2.75;;
11653;SDS011;5883;48.818;9.114;2023-09-30T07:55:23;6.80;;;2.70;;
11653;SDS011;5883;48.818;9.114;2023-09-30T07:58:08;6.82;;;2.72;;
11653;SDS011;5883;48.818;9.114;2023-09-30T08:00:54;5.78;;;2.78;;
11653;SDS011;5883;48.818;9.114;2023-09-30T08:03:39;5.47;;;2.47;;
11653;SDS011;5883;48.818;9.114;2023-09-30T08:06:24;4.72;;;2.50;;
11653;SDS011;5883;48.818;9.114;2023-09-30T08:09:09;8.07;;;2.70;;
11653;SDS011;5883;48.818;9.114;2023-09-30T08:11:56;4.68;;;2.55;;
11653;SDS011;5883;48.818;9.114;2023-09-30T08:14:41;4.95;;;2.20;;
11653;SDS011;5883;48.818;9.114;2023-09-30T08:17:29;5.20;;;2.90;;
11653;SDS011;5883;48.818;9.114;2023-09-30T08:20:14;3.88;;;2.35;;
11653;SDS011;5883;48.818;9.114;2023-09-30T08:22:59;4.13;;;2.50;;
11653;SDS011;5883;48.818;9.114;2023-09-30T08:25:44;7.32;;;2.60;;
11653;SDS011;5883;48.818;9.114;2023-09-30T08:28:29;8.35;;;2.83;;
11653;SDS011;5883;48.818;9.114;2023-09-30T08:31:14;5.68;;;2.70;;
11653;SDS011;5883;48.818;9.114;2023-09-30T08:34:00;6.47;;;3.03;;
11653;SDS011;5883;48.818;9.114;2023-09-30T08:36:47;6.35;;;2.85;;
11653;SDS011;5883;48.818;9.114;2023-09-30T08:39:32;6.13;;;2.30;;
11653;SDS011;5883;48.818;9.114;2023-09-30T08:42:22;7.38;;;2.65;;
11653;SDS011;5883;48.818;9.114;2023-09-30T08:45:08;4.00;;;2.60;;
11653;SDS011;5883;48.818;9.114;2023-09-30T08:47:54;5.13;;;2.40;;
11653;SDS011;5883;48.818;9.114;2023-09-30T08:50:41;5.22;;;2.42;;
11653;SDS011;5883;48.818;9.114;2023-09-30T08:53:27;3.38;;;2.35;;
11653;SDS011;5883;48.818;9.114;2023-09-30T08:56:13;8.88;;;2.40;;
11653;SDS011;5883;48.818;9.114;2023-09-30T08:58:59;9.20;;;2.92;;
11653;SDS011;5883;48.818;9.114;2023-09-30T09:01:44;6.18;;;2.60;;
11653;SDS011;5883;48.818;9.114;2023-09-30T09:04:29;5.95;;;2.47;;
11653;SDS011;5883;48.818;9.114;2023-09-30T09:07:15;7.40;;;2.63;;
11653;SDS011;5883;48.818;9.114;2023-09-30T09:10:04;5.38;;;2.53;;
11653;SDS011;5883;48.818;9.114;2023-09-30T09:12:54;3.25;;;2.22;;
11653;SDS011;5883;48.818;9.114;2023-09-30T09:15:40;4.15;;;2.30;;
11653;SDS011;5883;48.818;9.114;2023-09-30T09:18:30;5.65;;;3.00;;
11653;SDS011;5883;48.818;9.114;2023-09-30T09:21:18;4.80;;;2.13;;
11653;SDS011;5883;48.818;9.114;2023-09-30T09:24:06;4.43;;;2.25;;
11653;SDS011;5883;48.818;9.114;2023-09-30T09:26:51;9.70;;;3.60;;
11653;SDS011;5883;48.818;9.114;2023-09-30T09:29:36;7.35;;;3.10;;
11653;SDS011;5883;48.818;9.114;2023-09-30T09:32:22;4.95;;;2.47;;
11653;SDS011;5883;48.818;9.114;2023-09-30T09:35:07;8.90;;;2.55;;
11653;SDS011;5883;48.818;9.114;2023-09-30T09:37:55;4.15;;;2.05;;
11653;SDS011;5883;48.818;9.114;2023-09-30T09:40:42;5.15;;;2.40;;
11653;SDS011;5883;48.818;9.114;2023-09-30T09:43:27;5.63;;;2.90;;
11653;SDS011;5883;48.818;9.114;2023-09-30T09:46:15;6.10;;;2.25;;
11653;SDS011;5883;48.818;9.114;2023-09-30T09:49:01;4.63;;;2.95;;
11653;SDS011;5883;48.818;9.114;2023-09-30T09:51:47;5.75;;;2.47;;
11653;SDS011;5883;48.818;9.114;2023-09-30T09:54:32;4.43;;;2.65;;
11653;SDS011;5883;48.818;9.114;2023-09-30T09:57:19;5.90;;;2.75;;
11653;SDS011;5883;48.818;9.114;2023-09-30T10:00:05;4.65;;;2.45;;
11653;SDS011;5883;48.818;9.114;2023-09-30T10:02:55;5.78;;;2.60;;
11653;SDS011;5883;48.818;9.114;2023-09-30T10:05:40;6.82;;;2.83;;
11653;SDS011;5883;48.818;9.114;2023-09-30T10:08:29;4.70;;;2.35;;
11653;SDS011;5883;48.818;9.114;2023-09-30T10:11:16;8.27;;;3.03;;
11653;SDS011;5883;48.818;9.114;2023-09-30T10:14:03;4.90;;;2.95;;
11653;SDS011;5883;48.818;9.114;2023-09-30T10:16:51;4.47;;;2.53;;
11653;SDS011;5883;48.818;9.114;2023-09-30T10:19:36;22.48;;;3.50;;
11653;SDS011;5883;48.818;9.114;2023-09-30T10:22:24;5.32;;;2.40;;
11653;SDS011;5883;48.818;9.114;2023-09-30T10:31:15;15.98;;;4.15;;
11653;SDS011;5883;48.818;9.114;2023-09-30T10:34:21;5.18;;;2.97;;
11653;SDS011;5883;48.818;9.114;2023-09-30T10:37:19;8.93;;;3.00;;
11653;SDS011;5883;48.818;9.114;2023-09-30T10:40:05;4.68;;;2.75;;
11653;SDS011;5883;48.818;9.114;2023-09-30T10:42:51;5.10;;;2.42;;
11653;SDS011;5883;48.818;9.114;2023-09-30T10:45:44;5.35;;;2.65;;
11653;SDS011;5883;48.818;9.114;2023-09-30T10:48:35;4.93;;;2.72;;
11653;SDS011;5883;48.818;9.114;2023-09-30T10:51:21;6.00;;;3.28;;
11653;SDS011;5883;48.818;9.114;2023-09-30T10:54:06;9.63;;;2.85;;
11653;SDS011;5883;48.818;9.114;2023-09-30T10:56:52;8.13;;;3.53;;
11653;SDS011;5883;48.818;9.114;2023-09-30T10:59:37;5.07;;;3.20;;
11653;SDS011;5883;48.818;9.114;2023-09-30T11:02:22;5.85;;;2.83;;
11653;SDS011;5883;48.818;9.114;2023-09-30T11:05:09;6.45;;;3.22;;
11653;SDS011;5883;48.818;9.114;2023-09-30T11:07:55;7.47;;;3.30;;
11653;SDS011;5883;48.818;9.114;2023-09-30T11:10:46;4.82;;;2.90;;
11653;SDS011;5883;48.818;9.114;2023-09-30T11:13:32;6.72;;;3.28;;
11653;SDS011;5883;48.818;9.114;2023-09-30T11:16:18;6.32;;;2.92;;
11653;SDS011;5883;48.818;9.114;2023-09-30T11:19:03;7.22;;;3.30;;
11653;SDS011;5883;48.818;9.114;2023-09-30T11:21:50;5.22;;;3.13;;
11653;SDS011;5883;48.818;9.114;2023-09-30T11:24:36;5.75;;;3.00;;
11653;SDS011;5883;48.818;9.114;2023-09-30T11:27:24;6.45;;;3.40;;
11653;SDS011;5883;48.818;9.114;2023-09-30T11:30:10;6.93;;;3.50;;
11653;SDS011;5883;48.818;9.114;2023-09-30T11:32:58;5.88;;;3.20;;
11653;SDS011;5883;48.818;9.114;2023-09-30T11:35:54;8.48;;;3.80;;
11653;SDS011;5883;48.818;9.114;2023-09-30T11:38:45;8.82;;;3.22;;
11653;SDS011;5883;48.818;9.114;2023-09-30T11:41:34;7.78;;;4.07;;
11653;SDS011;5883;48.818;9.114;2023-09-30T11:44:20;6.18;;;3.03;;
11653;SDS011;5883;48.818;9.114;2023-09-30T11:47:05;6.13;;;3.42;;
11653;SDS011;5883;48.818;9.114;2023-09-30T11:49:52;5.65;;;3.05;;
11653;SDS011;5883;48.818;9.114;2023-09-30T11:52:37;6.55;;;3.40;;
11653;SDS011;5883;48.818;9.114;2023-09-30T11:55:26;8.32;;;3.47;;
11653;SDS011;5883;48.818;9.114;2023-09-30T11:58:11;14.55;;;3.70;;
11653;SDS011;5883;48.818;9.114;2023-09-30T12:01:02;14.10;;;3.60;;
11653;SDS011;5883;48.818;9.114;2023-09-30T12:03:51;5.75;;;2.97;;
11653;SDS011;5883;48.818;9.114;2023-09-30T12:06:38;7.93;;;3.55;;
11653;SDS011;5883;48.818;9.114;2023-09-30T12:09:23;7.65;;;3.22;;
11653;SDS011;5883;48.818;9.114;2023-09-30T12:12:12;7.65;;;3.25;;
11653;SDS011;5883;48.818;9.114;2023-09-30T12:14:58;5.95;;;3.42;;
11653;SDS011;5883;48.818;9.114;2023-09-30T12:17:43;5.63;;;2.97;;
11653;SDS011;5883;48.818;9.114;2023-09-30T12:20:28;7.63;;;3.15;;
11653;SDS011;5883;48.818;9.114;2023-09-30T12:23:15;6.05;;;3.15;;
11653;SDS011;5883;48.818;9.114;2023-09-30T12:26:02;9.75;;;3.83;;
11653;SDS011;5883;48.818;9.114;2023-09-30T12:28:50;5.47;;;3.42;;
11653;SDS011;5883;48.818;9.114;2023-09-30T12:31:34;5.25;;;3.05;;
11653;SDS011;5883;48.818;9.114;2023-09-30T12:34:19;6.65;;;3.55;;
11653;SDS011;5883;48.818;9.114;2023-09-30T12:37:06;6.25;;;3.60;;
11653;SDS011;5883;48.818;9.114;2023-09-30T12:39:51;6.15;;;3.53;;
11653;SDS011;5883;48.818;9.114;2023-09-30T12:42:36;5.10;;;3.15;;
11653;SDS011;5883;48.818;9.114;2023-09-30T12:45:23;4.82;;;3.05;;
11653;SDS011;5883;48.818;9.114;2023-09-30T12:48:08;6.38;;;3.72;;
11653;SDS011;5883;48.818;9.114;2023-09-30T12:50:53;6.20;;;3.55;;
11653;SDS011;5883;48.818;9.114;2023-09-30T12:53:38;7.60;;;3.95;;
11653;SDS011;5883;48.818;9.114;2023-09-30T12:56:23;6.50;;;3.13;;
11653;SDS011;5883;48.818;9.114;2023-09-30T12:59:09;5.75;;;3.42;;
11653;SDS011;5883;48.818;9.114;2023-09-30T13:01:55;9.60;;;3.88;;
11653;SDS011;5883;48.818;9.114;2023-09-30T13:04:41;7.13;;;3.30;;
11653;SDS011;5883;48.818;9.114;2023-09-30T13:07:27;7.85;;;3.67;;
11653;SDS011;5883;48.818;9.114;2023-09-30T13:10:12;9.75;;;3.50;;
11653;SDS011;5883;48.818;9.114;2023-09-30T13:12:58;6.43;;;3.90;;
11653;SDS011;5883;48.818;9.114;2023-09-30T13:15:42;9.18;;;4.25;;
11653;SDS011;5883;48.818;9.114;2023-09-30T13:18:29;6.15;;;3.88;;
11653;SDS011;5883;48.818;9.114;2023-09-30T13:21:14;4.90;;;3.40;;
11653;SDS011;5883;48.818;9.114;2023-09-30T13:23:59;4.57;;;3.40;;
11653;SDS011;5883;48.818;9.114;2023-09-30T13:26:44;7.88;;;3.42;;
11653;SDS011;5883;48.818;9.114;2023-09-30T13:29:30;6.60;;;3.58;;
11653;SDS011;5883;48.818;9.114;2023-09-30T13:32:15;7.03;;;3.25;;
11653;SDS011;5883;48.818;9.114;2023-09-30T13:35:04;8.35;;;3.60;;
11653;SDS011;5883;48.818;9.114;2023-09-30T13:37:50;7.57;;;3.30;;
11653;SDS011;5883;48.818;9.114;2023-09-30T13:40:35;8.18;;;3.65;;
11653;SDS011;5883;48.818;9.114;2023-09-30T13:43:20;8.23;;;3.85;;
11653;SDS011;5883;48.818;9.114;2023-09-30T13:46:05;7.07;;;3.70;;
11653;SDS011;5883;48.818;9.114;2023-09-30T13:48:50;6.75;;;3.47;;
11653;SDS011;5883;48.818;9.114;2023-09-30T13:51:37;9.10;;;4.50;;
11653;SDS011;5883;48.818;9.114;2023-09-30T13:54:23;6.45;;;3.28;;
11653;SDS011;5883;48.818;9.114;2023-09-30T13:57:08;6.97;;;3.85;;
11653;SDS011;5883;48.818;9.114;2023-09-30T13:59:53;5.65;;;3.30;;
11653;SDS011;5883;48.818;9.114;2023-09-30T14:02:38;6.60;;;3.80;;
11653;SDS011;5883;48.818;9.114;2023-09-30T14:05:23;6.18;;;3.92;;
11653;SDS011;5883;48.818;9.114;2023-09-30T14:08:09;6.35;;;3.20;;
11653;SDS011;5883;48.818;9.114;2023-09-30T14:10:54;7.60;;;4.03;;
11653;SDS011;5883;48.818;9.114;2023-09-30T14:13:39;7.85;;;3.70;;
11653;SDS011;5883;48.818;9.114;2023-09-30T14:16:24;9.52;;;3.83;;
11653;SDS011;5883;48.818;9.114;2023-09-30T14:19:09;10.15;;;3.60;;
11653;SDS011;5883;48.818;9.114;2023-09-30T14:21:57;8.48;;;3.72;;
11653;SDS011;5883;48.818;9.114;2023-09-30T14:24:43;7.22;;;3.85;;
11653;SDS011;5883;48.818;9.114;2023-09-30T14:27:29;6.05;;;3.25;;
11653;SDS011;5883;48.818;9.114;2023-09-30T14:30:14;7.18;;;3.53;;
11653;SDS011;5883;48.818;9.114;2023-09-30T14:32:59;7.05;;;3.60;;
11653;SDS011;5883;48.818;9.114;2023-09-30T14:35:44;7.75;;;3.35;;
11653;SDS011;5883;48.818;9.114;2023-09-30T14:38:30;6.47;;;3.25;;
11653;SDS011;5883;48.818;9.114;2023-09-30T14:41:16;7.57;;;3.22;;
11653;SDS011;5883;48.818;9.114;2023-09-30T14:44:01;6.80;;;3.25;;
11653;SDS011;5883;48.818;9.114;2023-09-30T14:46:50;4.72;;;3.00;;
11653;SDS011;5883;48.818;9.114;2023-09-30T14:49:35;6.05;;;3.45;;
11653;SDS011;5883;48.818;9.114;2023-09-30T14:52:21;5.80;;;3.40;;
11653;SDS011;5883;48.818;9.114;2023-09-30T14:55:06;6.28;;;3.15;;
11653;SDS011;5883;48.818;9.114;2023-09-30T14:57:52;5.93;;;3.40;;
11653;SDS011;5883;48.818;9.114;2023-09-30T15:00:37;7.55;;;3.50;;
11653;SDS011;5883;48.818;9.114;2023-09-30T15:03:22;6.85;;;3.00;;
11653;SDS011;5883;48.818;9.114;2023-09-30T15:06:07;7.53;;;3.60;;
11653;SDS011;5883;48.818;9.114;2023-09-30T15:08:53;6.55;;;3.72;;
11653;SDS011;5883;48.818;9.114;2023-09-30T15:11:38;7.50;;;3.25;;
11653;SDS011;5883;48.818;9.114;2023-09-30T15:14:24;8.15;;;3.78;;
11653;SDS011;5883;48.818;9.114;2023-09-30T15:17:09;6.20;;;3.47;;
11653;SDS011;5883;48.818;9.114;2023-09-30T15:19:54;10.15;;;4.03;;
11653;SDS011;5883;48.818;9.114;2023-09-30T15:22:39;6.85;;;3.60;;
11653;SDS011;5883;48.818;9.114;2023-09-30T15:25:24;6.57;;;3.92;;
11653;SDS011;5883;48.818;9.114;2023-09-30T15:28:10;5.47;;;3.22;;
11653;SDS011;5883;48.818;9.114;2023-09-30T15:30:57;6.55;;;3.20;;
11653;SDS011;5883;48.818;9.114;2023-09-30T15:33:42;8.68;;;3.85;;
11653;SDS011;5883;48.818;9.114;2023-09-30T15:36:28;6.28;;;3.65;;
11653;SDS011;5883;48.818;9.114;2023-09-30T15:39:13;6.75;;;3.55;;
11653;SDS011;5883;48.818;9.114;2023-09-30T15:41:58;6.75;;;3.53;;
11653;SDS011;5883;48.818;9.114;2023-09-30T15:44:43;7.88;;;3.97;;
11653;SDS011;5883;48.818;9.114;2023-09-30T15:47:29;7.05;;;3.53;;
11653;SDS011;5883;48.818;9.114;2023-09-30T15:50:14;6.88;;;3.72;;
11653;SDS011;5883;48.818;9.114;2023-09-30T15:52:59;11.50;;;4.18;;
11653;SDS011;5883;48.818;9.114;2023-09-30T15:55:44;5.90;;;3.42;;
11653;SDS011;5883;48.818;9.114;2023-09-30T15:58:30;6.20;;;3.80;;
11653;SDS011;5883;48.818;9.114;2023-09-30T16:01:15;6.40;;;3.75;;
11653;SDS011;5883;48.818;9.114;2023-09-30T16:04:01;7.55;;;4.20;;
11653;SDS011;5883;48.818;9.114;2023-09-30T16:06:46;8.07;;;4.35;;
11653;SDS011;5883;48.818;9.114;2023-09-30T16:09:31;9.85;;;4.57;;
11653;SDS011;5883;48.818;9.114;2023-09-30T16:12:17;5.75;;;3.75;;
11653;SDS011;5883;48.818;9.114;2023-09-30T16:15:02;7.65;;;3.70;;
11653;SDS011;5883;48.818;9.114;2023-09-30T16:17:49;8.95;;;3.90;;
11653;SDS011;5883;48.818;9.114;2023-09-30T16:20:35;7.07;;;4.00;;
11653;SDS011;5883;48.818;9.114;2023-09-30T16:23:20;7.57;;;3.95;;
11653;SDS011;5883;48.818;9.114;2023-09-30T16:26:05;6.68;;;3.53;;
11653;SDS011;5883;48.818;9.114;2023-09-30T16:28:50;7.47;;;3.78;;
11653;SDS011;5883;48.818;9.114;2023-09-30T16:31:35;7.82;;;4.10;;
11653;SDS011;5883;48.818;9.114;2023-09-30T16:34:20;7.60;;;4.28;;
11653;SDS011;5883;48.818;9.114;2023-09-30T16:37:06;8.52;;;4.40;;
11653;SDS011;5883;48.818;9.114;2023-09-30T16:39:51;6.82;;;4.00;;
11653;SDS011;5883;48.818;9.114;2023-09-30T16:42:36;6.80;;;3.47;;
11653;SDS011;5883;48.818;9.114;2023-09-30T16:45:22;7.72;;;3.85;;
11653;SDS011;5883;48.818;9.114;2023-09-30T16:48:07;8.93;;;4.15;;
11653;SDS011;5883;48.818;9.114;2023-09-30T16:50:53;7.95;;;4.22;;
11653;SDS011;5883;48.818;9.114;2023-09-30T16:53:39;7.80;;;4.20;;
11653;SDS011;5883;48.818;9.114;2023-09-30T16:56:24;8.15;;;3.95;;
11653;SDS011;5883;48.818;9.114;2023-09-30T16:59:11;11.85;;;4.05;;